createdAt,value
2022-10-31T00:00:50.248Z,101750.22
2022-10-31T00:01:53.608Z,101748.88
2022-10-31T00:02:56.119Z,101747.03
2022-10-31T00:03:59.413Z,101745.44
2022-10-31T00:05:01.613Z,101751.78
2022-10-31T00:06:05.378Z,101753.91
2022-10-31T00:07:07.513Z,101758.69
2022-10-31T00:08:10.757Z,101749.66
2022-10-31T00:09:13.069Z,101752.88
2022-10-31T00:10:16.591Z,101752.84
2022-10-31T00:11:18.755Z,101759.19
2022-10-31T00:12:23.508Z,101758.41
2022-10-31T00:13:25.876Z,101748.88
2022-10-31T00:14:29.041Z,101753.09
2022-10-31T00:15:31.290Z,101758.66
2022-10-31T00:16:34.686Z,101753.94
2022-10-31T00:17:37.405Z,101764.78
2022-10-31T00:18:40.646Z,101763.69
2022-10-31T00:19:42.940Z,101754.97
2022-10-31T00:20:46.068Z,101759.44
2022-10-31T00:21:48.199Z,101751.75
2022-10-31T00:22:51.411Z,101752.84
2022-10-31T00:23:53.872Z,101760.53
2022-10-31T00:24:57.130Z,101762.59
2022-10-31T00:26:02.930Z,101752.28
2022-10-31T00:27:06.139Z,101753.34
2022-10-31T00:28:12.840Z,101758.09
2022-10-31T00:29:16.188Z,101758.91
2022-10-31T00:30:18.306Z,101760.22
2022-10-31T00:31:22.222Z,101759.72
2022-10-31T00:32:24.680Z,101758.63
2022-10-31T00:33:27.964Z,101759.44
2022-10-31T00:34:30.241Z,101756.53
2022-10-31T00:35:33.607Z,101763.13
2022-10-31T00:36:35.838Z,101766.31
2022-10-31T00:37:39.190Z,101762.88
2022-10-31T00:38:41.725Z,101763.41
2022-10-31T00:39:46.217Z,101765.00
2022-10-31T00:40:48.376Z,101763.41
2022-10-31T00:41:51.754Z,101765.00
2022-10-31T00:42:54.015Z,101767.13
2022-10-31T00:43:58.945Z,101768.44
2022-10-31T00:45:01.082Z,101758.13
2022-10-31T00:46:04.607Z,101768.72
2022-10-31T00:47:06.810Z,101768.44
2022-10-31T00:48:10.113Z,101761.56
2022-10-31T00:49:13.425Z,101761.81
2022-10-31T00:50:16.813Z,101762.59
2022-10-31T00:51:19.012Z,101769.25
2022-10-31T00:52:22.454Z,101761.56
2022-10-31T00:53:24.649Z,101764.47
2022-10-31T00:54:27.903Z,101764.72
2022-10-31T00:55:30.067Z,101758.91
2022-10-31T00:56:33.308Z,101759.69
2022-10-31T00:57:35.538Z,101769.78
2022-10-31T00:58:38.754Z,101759.72
2022-10-31T00:59:42.435Z,101761.56
2022-10-31T01:00:48.145Z,101764.22
2022-10-31T01:01:53.393Z,101762.38
2022-10-31T01:02:57.050Z,101761.56
2022-10-31T01:03:59.385Z,101758.63
2022-10-31T01:05:02.720Z,101758.13
2022-10-31T01:06:07.013Z,101755.47
2022-10-31T01:07:12.384Z,101760.22
2022-10-31T01:08:14.920Z,101760.78
2022-10-31T01:09:18.258Z,101754.94
2022-10-31T01:10:20.610Z,101760.50
2022-10-31T01:11:25.863Z,101758.13
2022-10-31T01:12:28.032Z,101757.63
2022-10-31T01:13:31.437Z,101749.91
2022-10-31T01:14:33.592Z,101757.06
2022-10-31T01:15:38.304Z,101753.63
2022-10-31T01:16:40.849Z,101755.47
2022-10-31T01:17:44.091Z,101758.13
2022-10-31T01:18:48.032Z,101757.34
2022-10-31T01:19:50.256Z,101749.13
2022-10-31T01:21:01.276Z,101752.28
2022-10-31T01:22:04.442Z,101753.91
2022-10-31T01:23:06.524Z,101746.44
2022-10-31T01:24:10.647Z,101753.38
2022-10-31T01:25:13.550Z,101746.75
2022-10-31T01:26:19.276Z,101749.66
2022-10-31T01:27:21.436Z,101750.69
2022-10-31T01:29:32.620Z,101737.22
2022-10-31T01:30:36.278Z,101741.19
2022-10-31T01:31:41.567Z,101746.22
2022-10-31T01:32:43.783Z,101743.28
2022-10-31T01:33:47.413Z,101748.31
2022-10-31T01:34:50.703Z,101734.03
2022-10-31T01:35:52.861Z,101743.81
2022-10-31T01:36:56.085Z,101742.50
2022-10-31T01:37:58.268Z,101739.84
2022-10-31T01:39:03.472Z,101735.88
2022-10-31T01:40:06.900Z,101744.63
2022-10-31T01:41:12.043Z,101743.81
2022-10-31T01:42:19.587Z,101739.06
2022-10-31T01:43:22.797Z,101735.88
2022-10-31T01:44:53.836Z,101735.88
2022-10-31T01:45:57.845Z,101734.84
2022-10-31T01:47:05.642Z,101741.19
2022-10-31T01:48:14.958Z,101729.28
2022-10-31T01:49:23.950Z,101735.34
2022-10-31T01:50:33.997Z,101733.25
2022-10-31T01:51:41.072Z,101734.81
2022-10-31T01:52:46.012Z,101731.66
2022-10-31T01:53:50.303Z,101740.66
2022-10-31T01:54:57.400Z,101727.41
2022-10-31T01:56:02.672Z,101730.84
2022-10-31T01:57:09.394Z,101726.88
2022-10-31T01:58:16.186Z,101723.19
2022-10-31T01:59:21.380Z,101722.09
2022-10-31T02:00:24.982Z,101730.28
2022-10-31T02:01:29.758Z,101730.06
2022-10-31T02:02:34.451Z,101723.44
2022-10-31T02:03:37.132Z,101723.69
2022-10-31T02:04:41.493Z,101726.88
2022-10-31T02:05:45.901Z,101726.84
2022-10-31T02:06:52.512Z,101722.06
2022-10-31T02:07:59.880Z,101722.88
2022-10-31T02:09:04.173Z,101723.44
2022-10-31T02:10:07.172Z,101719.16
2022-10-31T02:11:11.579Z,101717.88
2022-10-31T02:12:14.695Z,101722.88
2022-10-31T02:13:18.653Z,101726.31
2022-10-31T02:14:23.533Z,101728.97
2022-10-31T02:15:27.012Z,101726.88
2022-10-31T02:16:31.014Z,101728.72
2022-10-31T02:17:35.731Z,101729.25
2022-10-31T02:18:38.007Z,101725.28
2022-10-31T02:19:49.572Z,101717.59
2022-10-31T02:21:00.003Z,101721.81
2022-10-31T02:22:11.797Z,101721.56
2022-10-31T02:23:52.272Z,101723.16
2022-10-31T02:25:25.302Z,101724.22
2022-10-31T02:26:43.219Z,101716.81
2022-10-31T02:28:03.793Z,101723.94
2022-10-31T02:29:45.534Z,101716.78
2022-10-31T02:31:08.538Z,101723.38
2022-10-31T02:32:20.327Z,101721.00
2022-10-31T02:33:28.173Z,101718.09
2022-10-31T02:34:38.930Z,101713.09
2022-10-31T02:35:50.171Z,101719.44
2022-10-31T02:36:59.022Z,101720.22
2022-10-31T02:38:11.400Z,101714.94
2022-10-31T02:39:19.745Z,101711.25
2022-10-31T02:40:28.276Z,101722.63
2022-10-31T02:41:38.975Z,101713.09
2022-10-31T02:42:50.760Z,101716.78
2022-10-31T02:44:03.564Z,101717.34
2022-10-31T02:45:13.088Z,101705.69
2022-10-31T02:46:25.022Z,101710.72
2022-10-31T02:47:32.340Z,101713.34
2022-10-31T02:48:38.286Z,101711.75
2022-10-31T02:49:46.965Z,101707.50
2022-10-31T02:50:53.992Z,101711.75
2022-10-31T02:51:57.622Z,101712.78
2022-10-31T02:53:00.052Z,101705.94
2022-10-31T02:54:03.250Z,101712.56
2022-10-31T02:55:14.543Z,101714.66
2022-10-31T02:56:19.366Z,101708.84
2022-10-31T02:57:26.068Z,101713.00
2022-10-31T02:58:34.157Z,101704.09
2022-10-31T02:59:41.133Z,101699.03
2022-10-31T03:00:54.630Z,101704.59
2022-10-31T03:02:11.792Z,101705.41
2022-10-31T03:03:20.844Z,101695.88
2022-10-31T03:05:00.228Z,101700.66
2022-10-31T03:06:08.663Z,101699.31
2022-10-31T03:07:22.404Z,101692.97
2022-10-31T03:08:32.443Z,101701.97
2022-10-31T03:09:42.944Z,101698.78
2022-10-31T03:10:54.070Z,101692.69
2022-10-31T03:12:01.565Z,101695.06
2022-10-31T03:13:11.701Z,101701.69
2022-10-31T03:14:21.542Z,101697.19
2022-10-31T03:15:30.062Z,101695.31
2022-10-31T03:16:41.729Z,101697.72
2022-10-31T03:17:55.279Z,101689.50
2022-10-31T03:19:04.108Z,101697.69
2022-10-31T03:20:10.205Z,101698.22
2022-10-31T03:21:16.990Z,101695.06
2022-10-31T03:22:23.172Z,101689.22
2022-10-31T03:23:27.444Z,101696.94
2022-10-31T03:24:33.707Z,101692.91
2022-10-31T03:25:38.815Z,101692.72
2022-10-31T03:26:45.869Z,101696.13
2022-10-31T03:27:50.076Z,101694.00
2022-10-31T03:28:56.210Z,101693.47
2022-10-31T03:30:02.959Z,101694.25
2022-10-31T03:31:07.507Z,101695.34
2022-10-31T03:32:15.516Z,101693.75
2022-10-31T03:33:25.823Z,101697.72
2022-10-31T03:34:30.932Z,101700.66
2022-10-31T03:35:36.329Z,101700.34
2022-10-31T03:36:41.364Z,101702.19
2022-10-31T03:37:45.823Z,101707.50
2022-10-31T03:38:49.855Z,101700.66
2022-10-31T03:39:53.999Z,101700.91
2022-10-31T03:41:00.762Z,101700.06
2022-10-31T03:42:07.483Z,101701.13
2022-10-31T03:43:15.977Z,101701.69
2022-10-31T03:44:21.072Z,101698.50
2022-10-31T03:45:28.636Z,101699.78
2022-10-31T03:46:30.936Z,101709.31
2022-10-31T03:47:34.974Z,101709.63
2022-10-31T03:48:39.089Z,101701.41
2022-10-31T03:49:42.308Z,101708.56
2022-10-31T03:50:52.146Z,101709.88
2022-10-31T03:52:01.283Z,101702.22
2022-10-31T03:53:11.066Z,101704.81
2022-10-31T03:54:22.942Z,101700.03
2022-10-31T03:55:31.841Z,101701.56
2022-10-31T03:56:39.162Z,101696.09
2022-10-31T03:57:48.296Z,101704.28
2022-10-31T03:58:57.924Z,101702.97
2022-10-31T04:00:04.994Z,101703.75
2022-10-31T04:01:11.940Z,101701.31
2022-10-31T04:02:18.522Z,101702.38
2022-10-31T04:03:25.493Z,101701.66
2022-10-31T04:04:32.133Z,101698.22
2022-10-31T04:05:36.310Z,101696.63
2022-10-31T04:06:42.575Z,101695.56
2022-10-31T04:07:48.645Z,101696.63
2022-10-31T04:08:56.178Z,101695.06
2022-10-31T04:10:01.623Z,101698.25
2022-10-31T04:11:06.993Z,101696.38
2022-10-31T04:12:12.311Z,101697.44
2022-10-31T04:13:27.673Z,101705.66
2022-10-31T04:14:32.419Z,101705.69
2022-10-31T04:15:37.811Z,101701.41
2022-10-31T04:16:43.197Z,101712.81
2022-10-31T04:17:49.765Z,101706.19
2022-10-31T04:18:52.785Z,101702.75
2022-10-31T04:19:57.355Z,101699.06
2022-10-31T04:21:03.631Z,101701.69
2022-10-31T04:22:06.833Z,101707.78
2022-10-31T04:23:19.533Z,101699.78
2022-10-31T04:24:22.958Z,101703.53
2022-10-31T04:25:25.163Z,101705.09
2022-10-31T04:26:28.324Z,101696.13
2022-10-31T04:27:30.428Z,101702.22
2022-10-31T04:28:34.819Z,101689.81
2022-10-31T04:29:37.091Z,101695.34
2022-10-31T04:30:40.429Z,101687.16
2022-10-31T04:31:42.600Z,101688.47
2022-10-31T04:32:45.869Z,101690.31
2022-10-31T04:33:48.005Z,101694.56
2022-10-31T04:34:51.306Z,101692.97
2022-10-31T04:35:54.901Z,101694.59
2022-10-31T04:36:58.064Z,101700.41
2022-10-31T04:38:00.240Z,101698.00
2022-10-31T04:39:03.556Z,101690.84
2022-10-31T04:40:06.924Z,101693.50
2022-10-31T04:41:10.332Z,101705.44
2022-10-31T04:42:12.472Z,101705.41
2022-10-31T04:43:15.855Z,101703.50
2022-10-31T04:44:18.147Z,101703.78
2022-10-31T04:45:21.629Z,101701.94
2022-10-31T04:46:23.956Z,101704.84
2022-10-31T04:47:27.190Z,101695.63
2022-10-31T04:48:29.536Z,101692.16
2022-10-31T04:49:32.776Z,101695.91
2022-10-31T04:50:35.076Z,101704.88
2022-10-31T04:51:39.846Z,101694.06
2022-10-31T04:52:42.611Z,101699.31
2022-10-31T04:53:45.926Z,101700.13
2022-10-31T04:54:48.209Z,101702.78
2022-10-31T04:55:51.598Z,101707.81
2022-10-31T04:56:53.712Z,101698.53
2022-10-31T04:57:57.123Z,101701.19
2022-10-31T04:58:59.317Z,101710.16
2022-10-31T05:00:02.607Z,101708.31
2022-10-31T05:01:05.871Z,101705.69
2022-10-31T05:02:08.233Z,101705.97
2022-10-31T05:03:11.652Z,101700.41
2022-10-31T05:04:13.844Z,101704.91
2022-10-31T05:05:18.264Z,101700.66
2022-10-31T05:06:21.366Z,101693.78
2022-10-31T05:07:24.975Z,101696.69
2022-10-31T05:08:28.152Z,101691.38
2022-10-31T05:09:30.432Z,101689.00
2022-10-31T05:10:33.650Z,101694.84
2022-10-31T05:11:35.776Z,101687.94
2022-10-31T05:12:39.309Z,101687.16
2022-10-31T05:13:41.387Z,101689.28
2022-10-31T05:14:47.643Z,101690.34
2022-10-31T05:15:51.177Z,101696.13
2022-10-31T05:16:54.877Z,101693.22
2022-10-31T05:17:58.320Z,101690.06
2022-10-31T05:19:01.957Z,101688.47
2022-10-31T05:20:04.867Z,101691.91
2022-10-31T05:21:08.293Z,101696.66
2022-10-31T05:22:10.455Z,101693.19
2022-10-31T05:23:15.358Z,101691.88
2022-10-31T05:24:17.457Z,101694.53
2022-10-31T05:25:22.125Z,101686.28
2022-10-31T05:26:25.511Z,101687.09
2022-10-31T05:27:27.761Z,101689.50
2022-10-31T05:28:31.032Z,101697.44
2022-10-31T05:29:34.515Z,101687.34
2022-10-31T05:30:37.771Z,101690.28
2022-10-31T05:31:40.144Z,101690.78
2022-10-31T05:32:44.861Z,101689.47
2022-10-31T05:33:47.112Z,101691.31
2022-10-31T05:34:50.368Z,101687.13
2022-10-31T05:35:53.068Z,101696.31
2022-10-31T05:36:56.243Z,101691.81
2022-10-31T05:37:58.915Z,101689.06
2022-10-31T05:39:03.469Z,101688.56
2022-10-31T05:40:08.542Z,101693.31
2022-10-31T05:41:11.939Z,101689.81
2022-10-31T05:42:14.101Z,101690.19
2022-10-31T05:43:17.481Z,101687.03
2022-10-31T05:44:19.951Z,101698.38
2022-10-31T05:45:24.451Z,101691.78
2022-10-31T05:46:26.773Z,101690.88
2022-10-31T05:47:30.227Z,101689.28
2022-10-31T05:48:32.573Z,101693.78
2022-10-31T05:49:36.005Z,101698.75
2022-10-31T05:50:38.161Z,101694.53
2022-10-31T05:51:41.454Z,101700.66
2022-10-31T05:52:43.829Z,101689.81
2022-10-31T05:53:48.669Z,101692.00
2022-10-31T05:54:52.234Z,101698.06
2022-10-31T05:55:55.381Z,101692.19
2022-10-31T05:56:57.549Z,101695.34
2022-10-31T05:58:01.367Z,101683.00
2022-10-31T05:59:03.725Z,101685.38
2022-10-31T06:00:08.110Z,101690.94
2022-10-31T06:01:10.421Z,101686.44
2022-10-31T06:02:13.857Z,101689.03
2022-10-31T06:03:16.015Z,101682.94
2022-10-31T06:04:19.252Z,101681.34
2022-10-31T06:05:21.556Z,101669.00
2022-10-31T06:06:24.736Z,101678.44
2022-10-31T06:07:27.017Z,101680.59
2022-10-31T06:08:30.193Z,101689.28
2022-10-31T06:09:32.232Z,101681.13
2022-10-31T06:10:37.011Z,101683.97
2022-10-31T06:11:39.090Z,101679.84
2022-10-31T06:12:42.389Z,101682.81
2022-10-31T06:13:45.540Z,101680.91
2022-10-31T06:14:48.672Z,101689.03
2022-10-31T06:15:50.918Z,101686.13
2022-10-31T06:16:54.118Z,101688.00
2022-10-31T06:18:00.952Z,101689.44
2022-10-31T06:19:04.743Z,101689.03
2022-10-31T06:20:08.852Z,101692.97
2022-10-31T06:21:13.665Z,101686.88
2022-10-31T06:22:18.816Z,101687.22
2022-10-31T06:23:22.030Z,101695.38
2022-10-31T06:24:25.411Z,101699.38
2022-10-31T06:25:27.923Z,101697.00
2022-10-31T06:26:32.601Z,101705.53
2022-10-31T06:27:34.836Z,101697.59
2022-10-31T06:28:37.994Z,101700.97
2022-10-31T06:29:40.096Z,101707.00
2022-10-31T06:30:43.209Z,101705.50
2022-10-31T06:31:45.398Z,101704.66
2022-10-31T06:32:48.728Z,101712.13
2022-10-31T06:33:51.913Z,101705.75
2022-10-31T06:34:54.231Z,101707.88
2022-10-31T06:35:57.521Z,101701.59
2022-10-31T06:36:59.612Z,101709.28
2022-10-31T06:38:03.376Z,101700.31
2022-10-31T06:39:06.067Z,101712.69
2022-10-31T06:40:10.241Z,101708.25
2022-10-31T06:41:12.321Z,101705.09
2022-10-31T06:42:17.952Z,101714.88
2022-10-31T06:43:20.543Z,101716.75
2022-10-31T06:44:24.104Z,101714.63
2022-10-31T06:45:26.546Z,101714.91
2022-10-31T06:46:29.971Z,101714.38
2022-10-31T06:47:32.459Z,101716.72
2022-10-31T06:48:36.760Z,101722.28
2022-10-31T06:49:39.042Z,101714.09
2022-10-31T06:50:42.362Z,101710.38
2022-10-31T06:51:46.114Z,101714.63
2022-10-31T06:52:52.197Z,101715.69
2022-10-31T06:53:55.583Z,101715.94
2022-10-31T06:54:57.803Z,101719.94
2022-10-31T06:56:01.120Z,101717.56
2022-10-31T06:57:03.373Z,101720.75
2022-10-31T06:58:08.498Z,101714.38
2022-10-31T06:59:10.963Z,101716.28
2022-10-31T07:00:14.764Z,101729.78
2022-10-31T07:01:17.058Z,101720.28
2022-10-31T07:02:20.525Z,101721.81
2022-10-31T07:03:22.877Z,101730.03
2022-10-31T07:04:26.786Z,101725.81
2022-10-31T07:05:31.486Z,101729.75
2022-10-31T07:06:33.811Z,101725.25
2022-10-31T07:07:36.930Z,101727.38
2022-10-31T07:08:40.094Z,101733.47
2022-10-31T07:09:42.226Z,101737.38
2022-10-31T07:10:53.082Z,101739.97
2022-10-31T07:11:55.204Z,101737.38
2022-10-31T07:12:59.232Z,101744.66
2022-10-31T07:14:04.082Z,101734.88
2022-10-31T07:15:07.278Z,101739.97
2022-10-31T07:16:13.006Z,101736.03
2022-10-31T07:17:15.405Z,101747.22
2022-10-31T07:18:18.716Z,101744.31
2022-10-31T07:19:20.880Z,101745.38
2022-10-31T07:20:24.092Z,101741.13
2022-10-31T07:21:27.267Z,101738.75
2022-10-31T07:22:34.235Z,101748.03
2022-10-31T07:23:37.431Z,101746.19
2022-10-31T07:24:39.668Z,101746.44
2022-10-31T07:25:43.341Z,101742.22
2022-10-31T07:26:47.284Z,101744.63
2022-10-31T07:27:51.255Z,101742.25
2022-10-31T07:28:53.319Z,101738.25
2022-10-31T07:29:57.969Z,101734.53
2022-10-31T07:31:01.082Z,101731.94
2022-10-31T07:32:03.158Z,101735.63
2022-10-31T07:33:07.263Z,101734.84
2022-10-31T07:34:10.413Z,101733.50
2022-10-31T07:35:14.467Z,101738.28
2022-10-31T07:36:17.868Z,101740.09
2022-10-31T07:37:20.037Z,101732.19
2022-10-31T07:38:23.472Z,101740.66
2022-10-31T07:39:25.637Z,101741.19
2022-10-31T07:40:28.861Z,101741.94
2022-10-31T07:41:32.274Z,101747.53
2022-10-31T07:42:36.810Z,101745.41
2022-10-31T07:43:39.958Z,101749.88
2022-10-31T07:44:42.040Z,101744.56
2022-10-31T07:45:50.918Z,101753.03
2022-10-31T07:46:52.991Z,101749.09
2022-10-31T07:47:56.481Z,101747.97
2022-10-31T07:48:58.613Z,101744.72
2022-10-31T07:50:01.601Z,101750.44
2022-10-31T07:51:04.802Z,101753.00
2022-10-31T07:52:06.899Z,101752.72
2022-10-31T07:53:12.238Z,101762.22
2022-10-31T07:54:14.321Z,101756.84
2022-10-31T07:55:17.679Z,101755.72
2022-10-31T07:56:19.906Z,101761.84
2022-10-31T07:57:25.042Z,101760.44
2022-10-31T07:58:28.522Z,101765.72
2022-10-31T07:59:30.576Z,101766.16
2022-10-31T08:00:34.529Z,101768.34
2022-10-31T08:01:38.042Z,101766.16
2022-10-31T08:02:41.353Z,101759.72
2022-10-31T08:03:43.461Z,101760.38
2022-10-31T08:04:46.585Z,101761.97
2022-10-31T08:05:49.914Z,101750.72
2022-10-31T08:06:52.032Z,101759.41
2022-10-31T08:07:55.365Z,101755.69
2022-10-31T08:08:58.550Z,101756.69
2022-10-31T08:10:00.863Z,101764.03
2022-10-31T08:11:04.297Z,101759.72
2022-10-31T08:12:06.788Z,101757.28
2022-10-31T08:13:11.803Z,101768.69
2022-10-31T08:14:14.023Z,101760.91
2022-10-31T08:15:17.420Z,101761.19
2022-10-31T08:16:21.014Z,101754.38
2022-10-31T08:17:24.495Z,101760.00
2022-10-31T08:18:27.609Z,101763.13
2022-10-31T08:19:29.844Z,101751.88
2022-10-31T08:20:33.123Z,101758.00
2022-10-31T08:21:36.274Z,101760.44
2022-10-31T08:22:41.286Z,101756.34
2022-10-31T08:23:46.849Z,101759.47
2022-10-31T08:24:49.031Z,101753.94
2022-10-31T08:25:52.160Z,101764.50
2022-10-31T08:26:54.240Z,101767.09
2022-10-31T08:27:58.367Z,101763.34
2022-10-31T08:29:00.766Z,101759.88
2022-10-31T08:30:03.959Z,101757.06
2022-10-31T08:31:07.377Z,101764.78
2022-10-31T08:32:09.429Z,101756.19
2022-10-31T08:33:16.320Z,101756.53
2022-10-31T08:34:18.383Z,101758.25
2022-10-31T08:35:21.696Z,101761.50
2022-10-31T08:36:23.854Z,101751.66
2022-10-31T08:37:27.084Z,101751.03
2022-10-31T08:38:30.236Z,101754.84
2022-10-31T08:39:32.353Z,101755.97
2022-10-31T08:40:37.972Z,101751.81
2022-10-31T08:41:40.073Z,101752.31
2022-10-31T08:42:43.412Z,101751.66
2022-10-31T08:43:46.615Z,101756.56
2022-10-31T08:44:48.904Z,101748.25
2022-10-31T08:45:52.183Z,101752.78
2022-10-31T08:46:55.277Z,101748.75
2022-10-31T08:48:02.626Z,101748.28
2022-10-31T08:49:06.579Z,101745.41
2022-10-31T08:50:10.632Z,101758.56
2022-10-31T08:51:13.818Z,101750.56
2022-10-31T08:52:17.135Z,101747.16
2022-10-31T08:53:21.669Z,101756.06
2022-10-31T08:54:23.940Z,101750.34
2022-10-31T08:55:27.140Z,101753.88
2022-10-31T08:56:30.291Z,101756.91
2022-10-31T08:57:32.452Z,101754.97
2022-10-31T08:58:40.073Z,101755.91
2022-10-31T08:59:42.523Z,101766.31
2022-10-31T09:00:46.623Z,101760.25
2022-10-31T09:01:49.029Z,101761.84
2022-10-31T09:02:58.025Z,101757.38
2022-10-31T09:04:01.161Z,101758.16
2022-10-31T09:05:05.339Z,101750.09
2022-10-31T09:06:10.188Z,101757.00
2022-10-31T09:07:20.665Z,101753.84
2022-10-31T09:08:25.382Z,101753.19
2022-10-31T09:09:27.605Z,101749.47
2022-10-31T09:10:32.939Z,101745.38
2022-10-31T09:11:35.139Z,101745.66
2022-10-31T09:12:38.422Z,101743.81
2022-10-31T09:13:41.742Z,101749.25
2022-10-31T09:14:43.965Z,101752.44
2022-10-31T09:15:50.045Z,101748.81
2022-10-31T09:16:52.860Z,101748.81
2022-10-31T09:17:56.312Z,101742.81
2022-10-31T09:18:59.455Z,101740.53
2022-10-31T09:20:01.610Z,101738.66
2022-10-31T09:21:06.471Z,101744.22
2022-10-31T09:22:10.255Z,101745.25
2022-10-31T09:23:15.276Z,101743.84
2022-10-31T09:24:18.446Z,101750.97
2022-10-31T09:25:20.507Z,101744.34
2022-10-31T09:26:23.863Z,101741.84
2022-10-31T09:27:26.020Z,101740.97
2022-10-31T09:28:29.415Z,101746.81
2022-10-31T09:29:31.674Z,101743.56
2022-10-31T09:30:36.839Z,101742.66
2022-10-31T09:31:44.690Z,101751.34
2022-10-31T09:32:47.122Z,101751.84
2022-10-31T09:33:50.314Z,101749.69
2022-10-31T09:34:52.436Z,101749.38
2022-10-31T09:35:55.659Z,101751.09
2022-10-31T09:36:59.207Z,101756.72
2022-10-31T09:38:03.720Z,101748.34
2022-10-31T09:39:08.425Z,101752.09
2022-10-31T09:40:11.819Z,101752.56
2022-10-31T09:41:24.026Z,101757.56
2022-10-31T09:42:44.882Z,101756.81
2022-10-31T09:43:54.264Z,101764.69
2022-10-31T09:45:07.575Z,101760.53
2022-10-31T09:46:16.318Z,101760.19
2022-10-31T09:47:27.159Z,101759.72
2022-10-31T09:48:39.215Z,101758.75
2022-10-31T09:49:59.817Z,101764.88
2022-10-31T09:51:08.069Z,101765.44
2022-10-31T09:52:19.908Z,101765.38
2022-10-31T09:53:28.602Z,101762.25
2022-10-31T09:54:36.882Z,101765.22
2022-10-31T09:55:44.321Z,101765.22
2022-10-31T09:56:46.438Z,101771.22
2022-10-31T09:57:50.699Z,101762.91
2022-10-31T09:58:56.685Z,101771.25
2022-10-31T09:59:59.883Z,101764.69
2022-10-31T10:01:05.602Z,101763.00
2022-10-31T10:02:15.799Z,101760.75
2022-10-31T10:03:31.182Z,101760.81
2022-10-31T10:04:39.494Z,101758.66
2022-10-31T10:05:48.781Z,101761.59
2022-10-31T10:06:53.316Z,101761.44
2022-10-31T10:08:05.799Z,101757.59
2022-10-31T10:09:09.226Z,101759.75
2022-10-31T10:10:18.009Z,101760.09
2022-10-31T10:11:35.196Z,101760.19
2022-10-31T10:12:52.115Z,101767.22
2022-10-31T10:14:08.458Z,101758.22
2022-10-31T10:15:39.853Z,101758.03
2022-10-31T10:16:58.040Z,101755.19
2022-10-31T10:18:11.259Z,101751.19
2022-10-31T10:19:27.176Z,101748.84
2022-10-31T10:20:41.226Z,101751.38
2022-10-31T10:21:49.886Z,101742.22
2022-10-31T10:23:03.907Z,101741.50
2022-10-31T10:24:22.248Z,101751.41
2022-10-31T10:25:28.295Z,101743.41
2022-10-31T10:26:38.355Z,101738.28
2022-10-31T10:27:51.635Z,101728.91
2022-10-31T10:28:59.706Z,101735.66
2022-10-31T10:30:07.515Z,101737.91
2022-10-31T10:31:16.365Z,101743.03
2022-10-31T10:32:23.743Z,101732.28
2022-10-31T10:33:35.364Z,101736.44
2022-10-31T10:34:44.295Z,101731.69
2022-10-31T10:35:51.452Z,101733.16
2022-10-31T10:36:59.677Z,101732.28
2022-10-31T10:38:15.346Z,101740.66
2022-10-31T10:39:22.830Z,101743.25
2022-10-31T10:40:27.001Z,101735.72
2022-10-31T10:41:34.438Z,101738.88
2022-10-31T10:43:08.215Z,101737.50
2022-10-31T10:44:12.519Z,101724.34
2022-10-31T10:45:37.649Z,101730.41
2022-10-31T10:47:01.577Z,101727.63
2022-10-31T10:48:15.438Z,101726.75
2022-10-31T10:49:20.755Z,101729.31
2022-10-31T10:50:29.650Z,101726.22
2022-10-31T10:51:58.278Z,101723.78
2022-10-31T10:53:22.306Z,101718.63
2022-10-31T10:54:49.431Z,101726.59
2022-10-31T10:55:57.110Z,101725.00
2022-10-31T10:57:12.686Z,101722.91
2022-10-31T10:58:16.019Z,101718.13
2022-10-31T10:59:22.059Z,101716.75
2022-10-31T11:00:27.187Z,101713.00
2022-10-31T11:01:30.451Z,101706.47
2022-10-31T11:02:35.329Z,101705.41
2022-10-31T11:03:37.765Z,101707.28
2022-10-31T11:04:43.636Z,101704.50
2022-10-31T11:05:51.926Z,101709.66
2022-10-31T11:07:06.466Z,101705.31
2022-10-31T11:08:10.513Z,101694.41
2022-10-31T11:09:13.811Z,101702.53
2022-10-31T11:10:17.446Z,101704.50
2022-10-31T11:11:31.225Z,101710.31
2022-10-31T11:12:35.723Z,101705.78
2022-10-31T11:13:39.671Z,101705.41
2022-10-31T11:14:47.891Z,101705.50
2022-10-31T11:15:56.076Z,101710.03
2022-10-31T11:17:10.933Z,101700.06
2022-10-31T11:19:32.968Z,101710.84
2022-10-31T11:20:38.247Z,101709.53
2022-10-31T11:21:40.589Z,101713.56
2022-10-31T11:22:45.253Z,101713.00
2022-10-31T11:23:49.961Z,101720.72
2022-10-31T11:24:52.216Z,101714.16
2022-10-31T11:25:58.923Z,101715.25
2022-10-31T11:27:15.778Z,101720.00
2022-10-31T11:28:18.217Z,101714.03
2022-10-31T11:29:26.188Z,101711.16
2022-10-31T11:30:29.405Z,101719.50
2022-10-31T11:31:34.675Z,101714.19
2022-10-31T11:32:37.347Z,101724.03
2022-10-31T11:33:48.612Z,101716.03
2022-10-31T11:34:55.309Z,101725.63
2022-10-31T11:35:59.569Z,101711.41
2022-10-31T11:37:12.100Z,101704.28
2022-10-31T11:38:20.834Z,101713.91
2022-10-31T11:39:26.888Z,101706.16
2022-10-31T11:40:30.283Z,101697.84
2022-10-31T11:41:35.065Z,101706.59
2022-10-31T11:42:41.499Z,101698.81
2022-10-31T11:43:50.631Z,101701.56
2022-10-31T11:44:56.931Z,101695.38
2022-10-31T11:46:00.209Z,101694.03
2022-10-31T11:47:06.734Z,101692.63
2022-10-31T11:48:18.203Z,101693.97
2022-10-31T11:49:25.789Z,101688.56
2022-10-31T11:50:33.928Z,101689.09
2022-10-31T11:51:37.580Z,101689.53
2022-10-31T11:52:41.223Z,101681.13
2022-10-31T11:53:56.975Z,101679.91
2022-10-31T11:55:18.637Z,101672.97
2022-10-31T11:56:22.597Z,101677.63
2022-10-31T11:57:27.486Z,101676.72
2022-10-31T11:58:31.388Z,101682.06
2022-10-31T11:59:34.054Z,101673.03
2022-10-31T12:00:42.021Z,101683.09
2022-10-31T12:01:49.332Z,101676.06
2022-10-31T12:02:53.329Z,101677.72
2022-10-31T12:04:03.744Z,101665.78
2022-10-31T12:05:14.814Z,101665.66
2022-10-31T12:06:22.794Z,101670.25
2022-10-31T12:07:26.502Z,101663.94
2022-10-31T12:08:32.711Z,101665.91
2022-10-31T12:09:37.843Z,101660.19
2022-10-31T12:10:51.265Z,101656.84
2022-10-31T12:12:17.656Z,101650.09
2022-10-31T12:13:34.880Z,101649.59
2022-10-31T12:14:47.030Z,101649.78
2022-10-31T12:15:58.035Z,101645.63
2022-10-31T12:17:08.692Z,101645.44
2022-10-31T12:18:35.157Z,101646.50
2022-10-31T12:19:44.700Z,101642.38
2022-10-31T12:20:58.913Z,101641.00
2022-10-31T12:22:11.325Z,101647.41
2022-10-31T12:23:21.635Z,101639.97
2022-10-31T12:24:38.078Z,101645.03
2022-10-31T12:25:49.680Z,101643.53
2022-10-31T12:27:13.237Z,101645.72
2022-10-31T12:28:46.373Z,101639.69
2022-10-31T12:30:07.112Z,101643.72
2022-10-31T12:31:24.785Z,101639.69
2022-10-31T12:32:39.594Z,101648.91
2022-10-31T12:33:55.562Z,101639.31
2022-10-31T12:35:27.071Z,101640.69